Current Metar reports for airports in our Region

Nearby METAR Reports

Metar reports are mainly used by pilots for information on what is happening at their destination during their pre-flight weather briefings and by meteorologists to assist in short term forecasts. A raw Metar is one of the most universal ways to communicate weather information in the world and are usually transmitted by airports, but some come from permanent sanctioned weather observatories.

Listed below are Metars from airports within 100 miles of our station here in Smethport Pa. The first one of course is the Bradford Regional Airport, then the Olean NY airport and so on. Each airport has it's own table to display it's data and at the bottom of the table is 'Raw' Metar for each airport. Most pilots and weather forecasters can look at the raw data and tell you what is up, but we use a script that handles all of the details for us.

KBFD - Bradford, Pennsylvania, USA
Distance from our station: NW 7mi
Updated: Wed, 20-Sep-2017 6:41am EDT
Few Clouds
Few Clouds
 Wind from calm
Wind:: Calm
Temperature: 52°F
Dew Point: 50°F
Humidity: 94%
Barometer: 30.06 inHg
Clouds: Few Clouds
Visibility: 10 miles
Cloud details: Few Clouds 300 ft
2017/09/20 10:41 KBFD 201041Z AUTO 00000KT 10SM FEW003 11/10 A3006 RMK AO2 T01060100
KOLE - Olean, New York, USA
Distance from our station: NNE 37mi
Updated: Wed, 20-Sep-2017 6:35am EDT
Clear
Clear
 Wind from calm
Wind:: Calm
Temperature: 57°F
Dew Point: 57°F
Humidity: 100%
Barometer: 30.07 inHg
Clouds: Clear
Visibility: 10 miles
2017/09/20 10:35 KOLE 201035Z AUTO 00000KT 10SM CLR 14/14 A3007 RMK AO2
 
KELZ - Wellsville, New York, USA
Distance from our station: NE 40mi
Updated: Wed, 20-Sep-2017 5:56am EDT
Fog, Overcast
Fog, Overcast
 Wind from calm
Wind:: Calm
Temperature: 55°F
Dew Point: 54°F
Humidity: 94%
Barometer: 30.07 inHg
Summary: Fog
Clouds: Overcast
Visibility: 1/4 mile
Cloud details: Overcast 200 ft
2017/09/20 09:56 KELZ 200956Z AUTO 00000KT 1/4SM FG VV002 13/12 A3007 RMK AO2 SLP173 T01280122
KDUJ - Du Bois, Pennsylvania, USA
Distance from our station: SSW 42mi
Updated: Wed, 20-Sep-2017 6:43am EDT
Mist, Few clouds
Mist, Few clouds
 Wind from calm
Wind:: Calm
Temperature: 55°F
Dew Point: 54°F
Humidity: 94%
Barometer: 30.04 inHg
Summary: Mist
Clouds: Few Clouds
Visibility: 2 miles
Cloud details: Few Clouds 300 ft
2017/09/20 10:43 KDUJ 201043Z AUTO 00000KT 2SM BR FEW003 13/12 A3004 RMK AO2 T01280117
 
KJHW - Jamestown, New York, USA
Distance from our station: NW 46mi
Updated: Wed, 20-Sep-2017 6:27am EDT
Mist, Clear
Mist, Clear
 Wind from S
Wind:: S 3 mph
Temperature: 57°F
Dew Point: 55°F
Humidity: 94%
Barometer: 30.05 inHg
Summary: Mist
Clouds: Clear
Visibility: 3 miles
2017/09/20 10:27 KJHW 201027Z AUTO 18003KT 3SM BR CLR 14/13 A3005 RMK AO2
KFIG - Clearfield, Pennsylvania, USA
Distance from our station: S 47mi
Updated: Wed, 20-Sep-2017 5:54am EDT
Fog, Overcast
Fog, Overcast
 Wind from calm
Wind:: Calm
Temperature: 54°F
Dew Point: 54°F
Humidity: 100%
Barometer: 30.04 inHg
Summary: Fog
Clouds: Overcast
Visibility: 1/4 mile
Cloud details: Overcast 200 ft
2017/09/20 09:54 KFIG 200954Z AUTO 00000KT 1/4SM FG VV002 12/12 A3004 RMK AO2 SLP165 T01220122
 
KDKK - Dunkirk, New York, USA
Distance from our station: NW 66mi
Updated: Wed, 20-Sep-2017 6:10am EDT
Clear
Clear
 Wind from SSE
Wind:: SSE 3 mph
Temperature: 55°F
Dew Point: 55°F
Humidity: 100%
Barometer: 30.00 inHg
Clouds: Clear
Visibility: 9 miles
2017/09/20 10:10 KDKK 201010Z AUTO 16003KT 9SM CLR 13/13 A3000 RMK AO2 T01280128
KUNV - State College, Pennsylvania, USA
Distance from our station: SSE 71mi
Updated: Wed, 20-Sep-2017 6:30am EDT
Fog, Overcast
Fog, Overcast
 Wind from calm
Wind:: Calm
Temperature: 54°F
Dew Point: 54°F
Humidity: 100%
Barometer: 30.02 inHg
Summary: Fog
Clouds: Overcast
Visibility: 1/4 mile
Cloud details: Overcast 100 ft
2017/09/20 10:30 KUNV 201030Z 00000KT 1/4SM FG OVC001 12/12 A3002
 
KFKL - Franklin, Pennsylvania, USA
Distance from our station: WSW 72mi
Updated: Wed, 20-Sep-2017 6:35am EDT
Clear
Clear
 Wind from E
Wind:: E 3 mph
Temperature: 55°F
Dew Point: 55°F
Humidity: 100%
Barometer: 30.04 inHg
Clouds: Clear
Visibility: 1 1/4 miles
2017/09/20 10:35 KFKL 201035Z 08003KT 1 1/4SM CLR 13/13 A3004 RMK AO2 SLP300 PWINO FZRANO TSNO RVRNO
KDSV - Dansville, New York, USA
Distance from our station: NE 73mi
Updated: Wed, 20-Sep-2017 5:54am EDT
Clear
Clear
 Wind from SE
Wind:: SE 8 mph
Temperature: 57°F
Dew Point: 55°F
Humidity: 94%
Barometer: 30.03 inHg
Clouds: Clear
Visibility: 10 miles
2017/09/20 09:54 KDSV 200954Z AUTO 14007KT 10SM CLR 14/13 A3003 RMK AO2 SLP174 T01390128
 
KIDI - Indiana/Stewart, Pennsylvania, USA
Distance from our station: SSW 81mi
Updated: Wed, 20-Sep-2017 6:35am EDT
Clear
Clear
 Wind from calm
Wind:: Calm
Temperature: 54°F
Dew Point: 54°F
Humidity: 100%
Barometer: 30.06 inHg
Clouds: Clear
Visibility: 10 miles
2017/09/20 10:35 KIDI 201035Z AUTO 00000KT 10SM CLR 12/12 A3006 RMK A01
KBUF - Buffalo/Cheektow, New York, USA
Distance from our station: N 84mi
Updated: Wed, 20-Sep-2017 5:54am EDT
Partly Cloudy
Partly Cloudy
 Wind from calm
Wind:: Calm
Temperature: 61°F
Dew Point: 59°F
Humidity: 94%
Barometer: 30.00 inHg
Clouds: Partly Cloudy
Visibility: 10 miles
Cloud details: Partly Cloudy 20000 ft
2017/09/20 09:54 KBUF 200954Z 00000KT 10SM SCT200 16/15 A3000 RMK AO2 SLP157 T01610150
 
KGKJ - Meadville, Pennsylvania, USA
Distance from our station: W 86mi
Updated: Wed, 20-Sep-2017 5:53am EDT
Clear
Clear
 Wind from ESE
Wind:: ESE 6 mph
Temperature: 63°F
Dew Point: 61°F
Humidity: 94%
Barometer: 30.02 inHg
Clouds: Clear
Visibility: 10 miles
2017/09/20 09:53 KGKJ 200953Z AUTO 11005KT 10SM CLR 17/16 A3002 RMK AO2 SLP155 T01720161
KERI - Erie, Pennsylvania, USA
Distance from our station: WNW 87mi
Updated: Wed, 20-Sep-2017 5:51am EDT
Clear
Clear
 Wind from calm
Wind:: Calm
Temperature: 64°F
Dew Point: 61°F
Humidity: 88%
Barometer: 29.98 inHg
Clouds: Clear
Visibility: 10 miles
2017/09/20 09:51 KERI 200951Z 00000KT 10SM CLR 18/16 A2998 RMK AO2 SLP150 T01830156
 
KELM - Elmira, New York, USA
Distance from our station: ENE 90mi
Updated: Wed, 20-Sep-2017 5:53am EDT
Fog, Overcast
Fog, Overcast
 Wind from W
Wind:: W 7 mph
Temperature: 59°F
Dew Point: 59°F
Humidity: 100%
Barometer: 30.01 inHg
Summary: Fog
Clouds: Overcast
Visibility: 1/4 mile
Cloud details: Overcast 200 ft
2017/09/20 09:53 KELM 200953Z 26006KT 1/4SM FG VV002 15/15 A3001 RMK AO2 SLP159 T01500150 RVRNO
KIPT - Williamsport, Pennsylvania, USA
Distance from our station: ESE 91mi
Updated: Wed, 20-Sep-2017 6:33am EDT
Mist, Overcast
Mist, Overcast
 Wind from NW
Wind:: NW 5 mph
Temperature: 61°F
Dew Point: 61°F
Humidity: 100%
Barometer: 29.99 inHg
Summary: Mist
Clouds: Overcast
Visibility: 2 1/2 miles
Cloud details: Overcast 300 ft
2017/09/20 10:33 KIPT 201033Z 31004KT 2 1/2SM BR OVC003 16/16 A2999 RMK AO2 T01610156
 
KBTP - Butler Co., Pennsylvania, USA
Distance from our station: SW 98mi
Updated: Wed, 20-Sep-2017 6:40am EDT
Mist, Clear
Mist, Clear
 Wind from NNE
Wind:: NNE 5 mph
Temperature: 55°F
Dew Point: 54°F
Humidity: 94%
Barometer: 30.03 inHg
Summary: Mist
Clouds: Clear
Visibility: 1 3/4 miles
2017/09/20 10:40 KBTP 201040Z AUTO 03004KT 1 3/4SM BR CLR 13/12 A3003 RMK AO2 VIS 1V3
KAOO - Altoona, Pennsylvania, USA
Distance from our station: S 99mi
Updated: Wed, 20-Sep-2017 6:43am EDT
Mist, Overcast
Mist, Overcast
 Wind from calm
Wind:: Calm
Temperature: 54°F
Dew Point: 54°F
Humidity: 100%
Barometer: 30.04 inHg
Summary: Mist
Clouds: Overcast
Visibility: 1 mile
Cloud details: Overcast 100 ft
2017/09/20 10:43 KAOO 201043Z AUTO 00000KT 1SM BR OVC001 12/12 A3004 RMK AO2 T01170117
 
KPIT - Pittsburg, Pennsylvania, USA
Distance from our station: SSW 126mi
Updated: Wed, 20-Sep-2017 5:51am EDT
Partly Cloudy
Partly Cloudy
 Wind from calm
Wind:: Calm
Temperature: 63°F
Dew Point: 63°F
Humidity: 100%
Barometer: 30.00 inHg
Clouds: Partly Cloudy
Visibility: 7 miles
Cloud details: Partly Cloudy 6000 ft
Partly Cloudy 25000 ft
2017/09/20 09:51 KPIT 200951Z 00000KT 7SM SCT060 SCT250 17/17 A3000 RMK AO2 SLP160 T01720167
KCLE - Cleveland, Ohio, USA
Distance from our station: WSW 160mi
Updated: Wed, 20-Sep-2017 5:51am EDT
Mostly Cloudy
Mostly Cloudy
 Wind from calm
Wind:: Calm
Temperature: 70°F
Dew Point: 64°F
Humidity: 83%
Barometer: 29.99 inHg
Clouds: Mostly Cloudy
Visibility: 7 miles
Cloud details: Partly Cloudy 9000 ft
Mostly Cloudy 14000 ft
2017/09/20 09:51 KCLE 200951Z 00000KT 7SM SCT090 BKN140 21/18 A2999 RMK AO2 SLP151 T02060183